Time;durP1;ratioP1;P1;durP2;ratioP2;P2;SDS_P1;SDS_P2;PMS_P1;PMS_P2;Temp;Humidity;BMP_temperature;BMP_pressure;BME280_temperature;BME280_humidity;BME280_pressure;Samples;Min_cycle;Max_cycle;Signal;HPM_P1;HPM_P2
2022/11/21 00:01:49;;;;;;;38.50;16.70;;;;;;;2.25;98.81;100050.03;123018;1105;104348;-78
2022/11/21 00:04:20;;;;;;;34.03;15.50;;;;;;;2.25;98.78;100026.73;123063;1104;104239;-78
2022/11/21 00:06:51;;;;;;;38.17;16.77;;;;;;;2.26;98.83;100015.56;123007;1106;104360;-77
2022/11/21 00:09:22;;;;;;;38.47;16.70;;;;;;;2.29;99.25;100023.52;123068;1105;104748;-77
2022/11/21 00:11:54;;;;;;;38.10;16.93;;;;;;;2.29;98.44;100044.23;123262;1105;104287;-78
2022/11/21 00:14:25;;;;;;;37.70;16.03;;;;;;;2.28;98.93;100047.64;123120;1105;104352;-78
2022/11/21 00:16:56;;;;;;;35.10;16.20;;;;;;;2.28;98.47;100047.64;123122;1105;105775;-78
2022/11/21 00:19:27;;;;;;;35.30;15.90;;;;;;;2.27;98.86;100062.25;123036;1105;104261;-77
2022/11/21 00:21:58;;;;;;;36.67;16.40;;;;;;;2.25;98.49;100063.86;123018;1105;104364;-78
2022/11/21 00:24:29;;;;;;;35.23;15.60;;;;;;;2.23;98.40;100060.30;123171;1105;104300;-77
2022/11/21 00:27:00;;;;;;;31.67;13.90;;;;;;;2.20;98.37;100041.98;123205;1105;104331;-77
2022/11/21 00:29:32;;;;;;;36.60;16.23;;;;;;;2.19;98.54;100028.95;122950;1105;107115;-76
2022/11/21 00:32:03;;;;;;;36.60;14.50;;;;;;;2.18;99.03;100035.80;123029;1105;104359;-77
2022/11/21 00:34:34;;;;;;;30.65;13.50;;;;;;;2.17;97.83;100034.03;123057;1105;104290;-78
2022/11/21 00:37:05;;;;;;;32.30;14.37;;;;;;;2.18;97.97;100027.15;123161;1105;104299;-78
2022/11/21 00:39:36;;;;;;;31.77;13.67;;;;;;;2.20;98.32;100033.30;123153;1105;118856;-77
2022/11/21 00:42:07;;;;;;;32.13;13.90;;;;;;;2.21;98.47;100041.16;123031;1105;104302;-78
2022/11/21 00:44:38;;;;;;;33.23;12.83;;;;;;;2.22;98.97;100042.08;122997;1105;104353;-78
2022/11/21 00:47:10;;;;;;;29.43;13.27;;;;;;;2.22;98.82;100036.91;123087;1105;104376;-78
2022/11/21 00:49:41;;;;;;;29.27;13.37;;;;;;;2.21;98.32;100035.98;122995;1105;104290;-78
2022/11/21 00:52:12;;;;;;;28.00;12.70;;;;;;;2.24;98.55;100033.59;123074;1105;104377;-78
2022/11/21 00:54:43;;;;;;;31.47;14.93;;;;;;;2.25;98.90;100037.98;123022;1105;104792;-77
2022/11/21 00:57:14;;;;;;;29.33;13.93;;;;;;;2.22;98.42;100035.20;123045;1105;104526;-78
2022/11/21 00:59:45;;;;;;;28.05;13.70;;;;;;;2.20;98.26;100036.81;123059;1105;104245;-78
2022/11/21 01:02:16;;;;;;;31.20;14.17;;;;;;;2.20;98.71;100049.75;123078;1105;104192;-78
2022/11/21 01:04:47;;;;;;;31.13;13.80;;;;;;;2.19;98.35;100045.36;123098;1105;104344;-77
2022/11/21 01:07:19;;;;;;;30.53;13.17;;;;;;;2.18;98.83;100029.73;122966;1105;104428;-78
2022/11/21 01:09:50;;;;;;;29.95;13.10;;;;;;;2.17;99.19;100015.91;123074;1105;104261;-77
2022/11/21 01:12:21;;;;;;;31.77;13.07;;;;;;;2.17;98.01;100021.09;123159;1105;104328;-78
2022/11/21 01:14:52;;;;;;;30.73;12.40;;;;;;;2.19;98.38;100024.66;123031;1105;104375;-78
2022/11/21 01:17:23;;;;;;;29.00;12.97;;;;;;;2.19;98.50;100010.83;122978;1105;104329;-78
2022/11/21 01:19:54;;;;;;;27.30;11.95;;;;;;;2.20;98.65;100016.09;122962;1105;104370;-78
2022/11/21 01:22:25;;;;;;;27.20;12.10;;;;;;;2.20;98.31;100013.51;123019;1105;104270;-77
2022/11/21 01:24:56;;;;;;;31.20;13.23;;;;;;;2.20;98.81;100016.09;122984;1105;104272;-77
2022/11/21 01:27:27;;;;;;;30.80;13.63;;;;;;;2.20;98.50;100021.28;122971;1105;104370;-78
2022/11/21 01:29:59;;;;;;;34.97;12.20;;;;;;;2.20;99.44;100015.19;122973;1105;104389;-77
2022/11/21 01:32:30;;;;;;;29.17;11.70;;;;;;;2.18;99.05;99996.97;122996;1106;104377;-77
2022/11/21 01:35:02;;;;;;;35.50;13.93;;;;;;;2.15;98.91;99997.70;122971;1105;104485;-77
2022/11/21 01:37:33;;;;;;;27.10;11.73;;;;;;;2.18;99.29;100003.84;123007;1105;104361;-77
2022/11/21 01:40:05;;;;;;;34.47;13.00;;;;;;;2.14;99.42;99995.89;123124;1105;104264;-78
2022/11/21 01:42:54;;;;;;;31.37;13.57;;;;;;;2.12;98.76;99997.51;123033;1105;104185;-77
2022/11/21 01:45:58;;;;;;;37.17;13.03;;;;;;;2.12;99.35;99986.23;123001;1105;104296;-78
2022/11/21 01:48:34;;;;;;;32.73;12.80;;;;;;;2.12;99.17;99988.83;123068;1105;104291;-76
2022/11/21 01:51:13;;;;;;;38.50;12.70;;;;;;;2.12;99.48;100005.27;122933;1105;111680;-78
2022/11/21 01:53:51;;;;;;;37.40;11.17;;;;;;;2.14;99.17;100016.61;122975;1105;104192;-77
2022/11/21 01:56:24;;;;;;;32.47;11.63;;;;;;;2.13;98.60;100011.33;123023;1105;104415;-78
2022/11/21 01:58:58;;;;;;;29.83;12.23;;;;;;;2.12;99.13;100002.69;123051;1105;104364;-78
2022/11/21 02:01:30;;;;;;;34.60;11.90;;;;;;;2.12;98.65;100004.36;122974;1105;104373;-76
2022/11/21 02:04:04;;;;;;;30.80;11.53;;;;;;;2.10;99.30;100016.32;123152;1105;104294;-77
2022/11/21 02:06:36;;;;;;;;;;;;;;;2.08;99.14;100018.81;123152;1105;104296;-78
2022/11/21 02:09:07;;;;;;;29.90;11.00;;;;;;;2.09;99.29;100025.79;123118;1105;104446;-78
2022/11/21 02:11:42;;;;;;;27.53;11.80;;;;;;;2.12;99.29;100015.62;123006;1105;104219;-78
2022/11/21 02:14:13;;;;;;;31.55;12.95;;;;;;;2.15;99.41;99983.84;123040;1105;104339;-77
2022/11/21 02:16:44;;;;;;;29.40;11.60;;;;;;;2.15;99.70;99974.40;123114;1105;104393;-78
2022/11/21 02:19:26;;;;;;;27.93;11.27;;;;;;;2.15;99.42;99976.07;123071;1104;104280;-78
2022/11/21 02:22:05;;;;;;;29.13;11.37;;;;;;;2.15;100.00;99964.05;123024;1105;119428;-76
2022/11/21 02:24:43;;;;;;;31.17;11.40;;;;;;;2.16;99.17;99965.81;123081;1105;104242;-78
2022/11/21 02:27:14;;;;;;;28.20;10.83;;;;;;;2.17;99.54;99966.73;123038;1105;104210;-76
2022/11/21 02:29:46;;;;;;;26.33;11.53;;;;;;;2.15;99.55;99961.45;123035;1105;104239;-78
2022/11/21 02:32:24;;;;;;;31.97;12.67;;;;;;;2.16;98.88;99965.81;123069;1105;104270;-78
2022/11/21 02:34:55;;;;;;;29.47;11.50;;;;;;;2.18;99.15;99947.78;123085;1106;104339;-79
2022/11/21 02:37:26;;;;;;;29.53;12.07;;;;;;;2.21;99.57;99941.91;123055;1105;104284;-78
2022/11/21 02:40:01;;;;;;;28.67;11.80;;;;;;;2.19;99.50;99943.52;122951;1105;104294;-77
2022/11/21 02:42:38;;;;;;;32.50;11.80;;;;;;;2.17;99.39;99940.84;123112;1105;104271;-76
2022/11/21 02:45:18;;;;;;;31.90;12.07;;;;;;;2.13;99.43;99926.80;123145;1106;104363;-78
2022/11/21 02:47:52;;;;;;;30.47;12.30;;;;;;;2.13;100.00;99938.86;123388;1105;104399;-78
2022/11/21 02:50:26;;;;;;;32.25;13.25;;;;;;;2.10;100.00;99924.06;122982;1105;104242;-78
2022/11/21 02:52:58;;;;;;;31.17;12.77;;;;;;;2.09;99.74;99922.27;122993;1105;104334;-76
2022/11/21 02:55:29;;;;;;;36.07;13.80;;;;;;;2.10;99.81;99925.73;123014;1105;104338;-77
2022/11/21 02:58:01;;;;;;;32.47;13.33;;;;;;;2.10;100.00;99916.30;123124;1105;104261;-78
2022/11/21 03:00:32;;;;;;;28.87;13.07;;;;;;;2.11;100.00;99924.94;123077;1105;104277;-78
2022/11/21 03:03:04;;;;;;;32.93;13.33;;;;;;;2.10;99.50;99923.14;123054;1105;107142;-78
2022/11/21 03:05:35;;;;;;;34.40;13.45;;;;;;;2.10;100.00;99929.23;123165;1105;104363;-78
2022/11/21 03:08:06;;;;;;;37.30;13.53;;;;;;;2.11;99.87;99936.17;123075;1105;104377;-78
2022/11/21 03:10:38;;;;;;;36.33;14.30;;;;;;;2.11;99.95;99938.77;123091;1105;104378;-78
2022/11/21 03:13:09;;;;;;;34.57;13.83;;;;;;;2.13;99.76;99938.86;123077;1105;118696;-77
2022/11/21 03:15:40;;;;;;;35.73;14.57;;;;;;;2.15;100.00;99938.16;122976;1106;104334;-78
2022/11/21 03:18:11;;;;;;;34.97;13.97;;;;;;;2.18;99.51;99936.55;123061;1105;104246;-78
2022/11/21 03:20:42;;;;;;;35.53;13.97;;;;;;;2.18;100.00;99934.84;123096;1105;104379;-77
2022/11/21 03:23:13;;;;;;;33.27;13.20;;;;;;;2.16;100.00;99933.87;123094;1105;104267;-78
2022/11/21 03:25:44;;;;;;;29.00;12.13;;;;;;;2.18;100.00;99931.38;123127;1105;104373;-78
2022/11/21 03:28:16;;;;;;;39.03;12.77;;;;;;;2.14;99.95;99922.53;123076;1105;104261;-78
2022/11/21 03:30:47;;;;;;;30.70;12.43;;;;;;;2.13;99.82;99906.09;123024;1105;104289;-79
2022/11/21 03:33:18;;;;;;;30.93;12.20;;;;;;;2.11;100.00;99905.12;122928;1105;104270;-78
2022/11/21 03:35:50;;;;;;;27.93;12.03;;;;;;;2.11;100.00;99907.70;123097;1105;104370;-78
2022/11/21 03:38:22;;;;;;;31.30;11.83;;;;;;;2.11;100.00;99899.94;123066;1106;104363;-78
2022/11/21 03:40:53;;;;;;;30.70;11.43;;;;;;;2.11;99.99;99918.06;122830;1105;104323;-77
2022/11/21 03:43:25;;;;;;;25.77;9.53;;;;;;;2.11;99.54;99899.94;123008;1105;104768;-78
2022/11/21 03:45:56;;;;;;;25.97;10.43;;;;;;;2.12;100.00;99886.20;123018;1105;104337;-79
2022/11/21 03:48:27;;;;;;;25.03;10.40;;;;;;;2.10;100.00;99882.65;122995;1105;104261;-77
2022/11/21 03:50:58;;;;;;;27.00;11.25;;;;;;;2.09;100.00;99869.61;123164;1105;104290;-77
2022/11/21 03:53:29;;;;;;;28.27;11.43;;;;;;;2.07;100.00;99878.96;123059;1105;104382;-78
2022/11/21 03:56:00;;;;;;;25.27;10.00;;;;;;;2.06;100.00;99882.38;123144;1105;104351;-78
2022/11/21 03:58:31;;;;;;;24.57;10.47;;;;;;;2.06;99.98;99884.96;123047;1104;104261;-78
2022/11/21 04:01:02;;;;;;;23.73;10.20;;;;;;;2.04;100.00;99877.11;122945;1104;104289;-77
2022/11/21 04:03:34;;;;;;;24.23;10.43;;;;;;;2.04;99.46;99869.34;123009;1105;104746;-77
2022/11/21 04:06:05;;;;;;;25.80;10.70;;;;;;;2.07;99.62;99873.78;122861;1105;104258;-77
2022/11/21 04:08:36;;;;;;;23.70;10.43;;;;;;;2.08;100.00;99855.76;122877;1105;104230;-76
2022/11/21 04:11:08;;;;;;;22.73;10.40;;;;;;;2.09;99.93;99852.38;122890;1106;104337;-77
2022/11/21 04:13:39;;;;;;;23.75;10.15;;;;;;;2.09;99.68;99849.80;123174;1105;104261;-80
2022/11/21 04:16:10;;;;;;;21.73;9.90;;;;;;;2.11;99.82;99860.23;123408;1105;104315;-78
2022/11/21 04:18:41;;;;;;;24.87;10.33;;;;;;;2.12;100.00;99859.41;123480;1105;104459;-78
2022/11/21 04:21:13;;;;;;;23.55;10.00;;;;;;;2.14;99.97;99845.77;123772;1104;104264;-79
2022/11/21 04:23:44;;;;;;;22.53;10.20;;;;;;;2.15;99.80;99846.66;123246;1105;104258;-78
2022/11/21 04:26:15;;;;;;;23.57;9.47;;;;;;;2.19;99.66;99851.22;123158;1105;104315;-79
2022/11/21 04:28:46;;;;;;;22.83;10.30;;;;;;;2.22;99.88;99856.58;123377;1105;104265;-79
2022/11/21 04:31:17;;;;;;;21.60;9.33;;;;;;;2.24;99.70;99852.37;123705;1105;104348;-80
2022/11/21 04:33:51;;;;;;;23.37;9.73;;;;;;;2.25;99.82;99850.70;123449;1105;104742;-79
2022/11/21 04:36:22;;;;;;;21.10;7.97;;;;;;;2.23;100.00;99844.52;123134;1105;104312;-83
2022/11/21 04:38:53;;;;;;;21.93;8.60;;;;;;;2.19;100.00;99824.45;123303;1105;104322;-80
2022/11/21 04:41:24;;;;;;;22.57;9.17;;;;;;;2.19;99.97;99819.27;123311;1105;104396;-79
2022/11/21 04:43:55;;;;;;;21.20;8.33;;;;;;;2.16;100.00;99813.09;123332;1105;104287;-80
2022/11/21 04:46:26;;;;;;;22.23;9.27;;;;;;;2.13;100.00;99827.56;123385;1105;104287;-82
2022/11/21 04:49:00;;;;;;;19.05;8.25;;;;;;;2.12;100.00;99847.38;123280;1105;104348;-80
2022/11/21 04:51:31;;;;;;;19.15;7.80;;;;;;;2.12;100.00;99851.64;123378;1105;104261;-81
2022/11/21 04:54:05;;;;;;;18.80;7.73;;;;;;;2.13;100.00;99856.91;123299;1105;104405;-82
2022/11/21 04:56:37;;;;;;;20.77;7.70;;;;;;;2.15;100.00;99818.17;123277;1105;104245;-83
2022/11/21 04:59:08;;;;;;;16.53;6.87;;;;;;;2.18;100.00;99794.18;123364;1105;104290;-82
2022/11/21 05:01:40;;;;;;;19.00;8.17;;;;;;;2.14;100.00;99782.77;123310;1105;104338;-83
2022/11/21 05:04:11;;;;;;;19.10;7.23;;;;;;;2.12;100.00;99769.73;123346;1105;104245;-79
2022/11/21 05:06:42;;;;;;;18.17;6.57;;;;;;;2.12;100.00;99754.20;123395;1106;104460;-80
2022/11/21 05:09:13;;;;;;;17.60;6.67;;;;;;;2.08;100.00;99760.00;123346;1105;104313;-83
2022/11/21 05:14:33;;;;;;;19.05;7.60;;;;;;;2.01;100.00;99737.19;123350;1105;104294;-81
2022/11/21 05:17:04;;;;;;;17.93;7.30;;;;;;;2.00;100.00;99744.86;123348;1105;104302;-81
2022/11/21 05:19:35;;;;;;;18.17;7.17;;;;;;;1.99;100.00;99733.59;123389;1105;104402;-80
2022/11/21 05:22:06;;;;;;;16.35;6.60;;;;;;;1.96;100.00;99690.34;123415;1105;104344;-80
2022/11/21 05:24:38;;;;;;;15.67;5.77;;;;;;;1.94;100.00;99660.00;123165;1105;104387;-78
2022/11/21 05:27:09;;;;;;;15.33;6.17;;;;;;;1.91;100.00;99636.54;123131;1105;104259;-78
2022/11/21 05:29:40;;;;;;;15.30;6.20;;;;;;;1.89;100.00;99669.20;123441;1106;104332;-81
2022/11/21 05:32:11;;;;;;;15.70;5.80;;;;;;;1.89;100.00;99670.09;123678;1105;104405;-80
2022/11/21 05:34:42;;;;;;;13.67;5.37;;;;;;;1.89;100.00;99680.44;123610;1105;104284;-81
2022/11/21 05:37:14;;;;;;;13.20;5.60;;;;;;;1.89;100.00;99692.48;123690;1105;104367;-81
2022/11/21 05:39:45;;;;;;;13.03;5.20;;;;;;;1.86;100.00;99711.30;123559;1105;104288;-77
2022/11/21 05:43:44;;;;;;;13.97;5.23;;;;;;;1.84;100.00;99723.27;123974;1105;102022;-79
2022/11/21 05:45:10;;;;;;;16.37;5.53;;;;;;;1.89;100.00;99764.93;124001;1105;104397;-80
2022/11/21 05:47:42;;;;;;;11.73;4.80;;;;;;;1.94;100.00;99802.30;123825;1105;104261;-80
2022/11/21 05:50:16;;;;;;;12.07;5.10;;;;;;;1.98;100.00;99776.70;124003;1105;102271;-80
2022/11/21 05:52:54;;;;;;;11.73;4.97;;;;;;;2.04;100.00;99798.55;123702;1105;104421;-80
2022/11/21 05:55:25;;;;;;;13.45;4.90;;;;;;;2.06;100.00;99791.80;123644;1105;104367;-81
2022/11/21 05:58:19;;;;;;;12.20;4.60;;;;;;;2.04;100.00;99734.77;123751;1105;104740;-80
2022/11/21 06:00:55;;;;;;;13.67;5.20;;;;;;;2.02;100.00;99728.59;123545;1105;104344;-81
2022/11/21 06:03:29;;;;;;;11.97;4.83;;;;;;;2.03;100.00;99720.03;123962;1105;104297;-80
2022/11/21 06:06:09;;;;;;;12.67;4.87;;;;;;;2.04;100.00;99702.80;124364;1105;102950;-81
2022/11/21 06:08:42;;;;;;;12.73;4.87;;;;;;;2.05;100.00;99686.48;123491;1105;104294;-77
2022/11/21 06:11:15;;;;;;;11.47;4.73;;;;;;;2.00;100.00;99708.62;123568;1105;104408;-79
2022/11/21 06:13:47;;;;;;;9.97;4.63;;;;;;;2.01;100.00;99705.22;123651;1105;104293;-79
2022/11/21 06:16:20;;;;;;;10.83;4.90;;;;;;;1.98;100.00;99674.91;123598;1105;104277;-79
2022/11/21 06:18:52;;;;;;;11.30;5.00;;;;;;;1.95;100.00;99685.95;123309;1105;104241;-77
2022/11/21 06:21:25;;;;;;;9.37;4.50;;;;;;;1.95;100.00;99727.36;123474;1105;104258;-78
2022/11/21 06:23:57;;;;;;;8.43;4.50;;;;;;;2.01;100.00;99719.06;123658;1105;104875;-79
2022/11/21 06:26:29;;;;;;;9.97;4.77;;;;;;;1.94;100.00;99696.22;123876;1105;104229;-78
2022/11/21 06:29:02;;;;;;;10.07;4.40;;;;;;;2.02;100.00;99705.30;123839;1105;104241;-77
2022/11/21 06:31:33;;;;;;;9.50;4.60;;;;;;;2.04;100.00;99698.54;123665;1106;104208;-78
2022/11/21 06:34:05;;;;;;;11.10;4.50;;;;;;;2.04;100.00;99680.42;123495;1105;104189;-77
2022/11/21 06:36:36;;;;;;;9.47;4.57;;;;;;;2.02;100.00;99691.48;123874;1106;104373;-78
2022/11/21 06:39:08;;;;;;;6.47;3.50;;;;;;;1.97;100.00;99689.52;123830;1105;104475;-78
2022/11/21 06:41:39;;;;;;;8.67;4.10;;;;;;;1.97;100.00;99686.05;123646;1105;104195;-78
2022/11/21 06:44:11;;;;;;;9.33;4.30;;;;;;;1.98;100.00;99682.66;123595;1105;104376;-79
2022/11/21 06:46:44;;;;;;;9.60;4.57;;;;;;;1.99;100.00;99697.36;124106;1105;104348;-79
2022/11/21 06:49:26;;;;;;;10.25;4.60;;;;;;;2.02;100.00;99709.59;124013;1106;103120;-81
2022/11/21 06:52:02;;;;;;;24.57;11.63;;;;;;;2.02;100.00;99709.59;124324;1105;103654;-82
2022/11/21 06:54:33;;;;;;;23.13;10.97;;;;;;;1.98;100.00;99712.01;124340;1105;104236;-79
2022/11/21 06:57:06;;;;;;;18.63;8.47;;;;;;;1.95;100.00;99690.25;123818;1105;104328;-81
2022/11/21 06:59:40;;;;;;;17.00;7.33;;;;;;;1.91;100.00;99677.94;124378;1105;103699;-78
2022/11/21 07:02:14;;;;;;;15.50;6.20;;;;;;;1.87;100.00;99671.70;124385;1105;102514;-78
2022/11/21 07:04:47;;;;;;;18.27;7.37;;;;;;;1.88;100.00;99667.41;123928;1105;102607;-78
2022/11/21 07:07:21;;;;;;;18.07;7.67;;;;;;;1.90;100.00;99670.97;124038;1105;104230;-78
2022/11/21 07:09:56;;;;;;;25.53;13.10;;;;;;;1.88;100.00;99673.47;124864;1105;103058;-79
2022/11/21 07:15:19;;;;;;;17.13;7.00;;;;;;;1.88;100.00;99682.94;124168;1105;104261;-76
2022/11/21 07:17:53;;;;;;;18.70;7.10;;;;;;;1.88;100.00;99670.88;124207;1106;102068;-78
2022/11/21 08:39:13;;;;;;;10.03;5.07;;;;;;;1.85;100.00;99476.68;124827;1096;104246;-78
2022/11/21 08:42:04;;;;;;;9.67;4.97;;;;;;;1.96;100.00;99470.41;124547;1105;104304;-78
2022/11/21 08:44:37;;;;;;;9.40;5.20;;;;;;;2.03;100.00;99463.84;124571;1105;104303;-78
2022/11/21 08:47:19;;;;;;;8.87;4.27;;;;;;;2.14;100.00;99460.12;124344;1103;104239;-78
2022/11/21 08:49:53;;;;;;;6.63;4.10;;;;;;;2.24;100.00;99455.42;124349;1105;102761;-78
2022/11/21 08:56:06;;;;;;;6.53;3.30;;;;;;;2.32;100.00;99438.58;124475;1102;104187;-77
2022/11/21 08:58:43;;;;;;;5.27;3.43;;;;;;;2.38;100.00;99427.66;124292;1105;104175;-77
2022/11/21 09:01:19;;;;;;;6.50;3.13;;;;;;;2.42;100.00;99430.48;124323;1102;104495;-76
2022/11/21 09:03:53;;;;;;;3.33;2.50;;;;;;;2.43;100.00;99411.56;124175;1106;104137;-78
2022/11/21 09:06:24;;;;;;;5.67;3.00;;;;;;;2.43;100.00;99395.11;124116;1102;104142;-76
2022/11/21 09:08:57;;;;;;;6.03;3.20;;;;;;;2.42;100.00;99389.05;126001;1102;101424;-76
2022/11/21 09:11:32;;;;;;;4.97;3.00;;;;;;;2.42;100.00;99373.52;125951;1101;102726;-75
2022/11/21 09:20:34;;;;;;;10.37;5.27;;;;;;;2.41;100.00;99370.86;124287;1105;104217;-78
2022/11/21 09:23:14;;;;;;;6.47;3.98;;;;;;;2.41;100.00;99376.03;124474;1105;104255;-78
2022/11/21 09:25:56;;;;;;;8.00;3.50;;;;;;;2.39;100.00;99383.72;124289;1102;104238;-77
2022/11/21 09:28:36;;;;;;;6.67;3.20;;;;;;;2.30;100.00;99360.84;124438;1106;103696;-77
2022/11/21 09:31:46;;;;;;;7.23;3.43;;;;;;;2.42;100.00;99386.47;124478;1105;102444;-77
2022/11/21 09:34:33;;;;;;;7.03;3.63;;;;;;;2.42;100.00;99373.52;124551;1103;104667;-78
2022/11/21 09:37:06;;;;;;;7.08;3.70;;;;;;;2.39;100.00;99368.19;125213;1102;103290;-77
2022/11/21 09:39:38;;;;;;;10.20;4.27;;;;;;;2.38;100.00;99365.52;124719;1102;102370;-79
2022/11/21 09:42:39;;;;;;;9.83;4.97;;;;;;;2.42;100.00;99370.93;124901;1102;103902;-77
2022/11/21 09:45:16;;;;;;;12.10;5.43;;;;;;;2.43;100.00;99352.01;124558;1102;104246;-75
2022/11/21 09:47:56;;;;;;;11.50;5.35;;;;;;;2.47;100.00;99338.37;124613;1102;102730;-77
2022/11/21 09:50:33;;;;;;;9.30;4.90;;;;;;;2.50;100.00;99340.23;124496;1102;104166;-77
2022/11/21 09:53:11;;;;;;;11.80;5.23;;;;;;;2.53;100.00;99339.52;125915;1102;102589;-77
2022/11/21 09:55:49;;;;;;;9.30;4.77;;;;;;;2.60;100.00;99336.39;124695;1102;103048;-76
2022/11/21 09:58:30;;;;;;;10.47;4.83;;;;;;;2.67;100.00;99336.77;124546;1102;102151;-77
2022/11/21 10:01:06;;;;;;;9.57;4.30;;;;;;;2.73;100.00;99337.86;124515;1102;101892;-76
2022/11/21 10:03:44;;;;;;;8.10;4.13;;;;;;;2.69;100.00;99350.66;124513;1102;102205;-76
2022/11/21 10:06:22;;;;;;;10.50;5.05;;;;;;;2.69;100.00;99354.97;124524;1102;104172;-76
2022/11/21 10:09:07;;;;;;;13.90;5.27;;;;;;;2.64;100.00;99367.69;124527;1102;103400;-76
2022/11/21 10:14:51;;;;;;;8.83;4.97;;;;;;;2.64;100.00;99346.09;124729;1099;104233;-76
2022/11/21 10:17:40;;;;;;;11.67;5.63;;;;;;;2.63;100.00;99341.72;124472;1102;104188;-76
2022/11/21 10:20:37;;;;;;;14.50;5.73;;;;;;;2.68;100.00;99342.81;124504;1099;104162;-77
2022/11/21 10:23:38;;;;;;;13.77;5.17;;;;;;;2.67;100.00;99338.48;124429;1099;104185;-76
2022/11/21 10:26:36;;;;;;;10.13;4.60;;;;;;;2.68;100.00;99332.45;124533;1102;103567;-77
2022/11/21 10:29:18;;;;;;;12.00;5.50;;;;;;;2.66;100.00;99329.80;124667;1099;102215;-76
2022/11/21 10:31:59;;;;;;;8.23;4.37;;;;;;;2.62;100.00;99324.42;124775;1099;109358;-77
2022/11/21 10:34:39;;;;;;;9.97;4.70;;;;;;;2.65;100.00;99315.09;124770;1102;104166;-76
2022/11/21 10:37:16;;;;;;;9.60;4.60;;;;;;;2.70;100.00;99317.90;124548;1102;104175;-76
2022/11/21 10:39:52;;;;;;;7.57;4.23;;;;;;;2.69;100.00;99311.81;124695;1099;102278;-76
2022/11/21 10:42:36;;;;;;;12.30;5.60;;;;;;;2.72;100.00;99316.27;124712;1102;104213;-76
2022/11/21 10:45:18;;;;;;;13.67;6.40;;;;;;;2.73;100.00;99304.19;124489;1099;104319;-77
2022/11/21 10:47:53;;;;;;;11.80;5.23;;;;;;;2.75;100.00;99298.27;124596;1099;104354;-76
2022/11/21 10:50:49;;;;;;;11.17;5.30;;;;;;;2.74;100.00;99301.67;124594;1102;102191;-77
2022/11/21 10:56:18;;;;;;;7.17;4.27;;;;;;;2.77;100.00;99291.45;124851;1099;104281;-76
2022/11/21 10:58:58;;;;;;;6.97;3.97;;;;;;;2.78;100.00;99285.47;124796;1099;104035;-78
2022/11/21 11:01:31;;;;;;;9.10;3.97;;;;;;;2.83;100.00;99283.09;124879;1099;104245;-76
2022/11/21 11:04:20;;;;;;;6.63;3.53;;;;;;;2.86;100.00;99271.16;124935;1102;104264;-77
2022/11/21 11:06:59;;;;;;;6.40;3.27;;;;;;;2.83;100.00;99271.02;124877;1099;103335;-76
2022/11/21 11:09:33;;;;;;;7.20;3.23;;;;;;;2.79;100.00;99263.02;125078;1099;104195;-75
2022/11/21 11:13:32;;;;;;;10.08;4.10;;;;;;;2.70;100.00;99255.73;124773;1102;103031;-75
2022/11/21 11:15:25;;;;;;;13.28;4.62;;;;;;;2.82;100.00;99251.12;124735;1099;102590;-75
2022/11/21 11:18:02;;;;;;;16.23;6.47;;;;;;;2.86;100.00;99242.66;124879;1102;102368;-75
2022/11/21 11:20:38;;;;;;;12.10;4.90;;;;;;;2.90;100.00;99233.34;124715;1102;102704;-74
2022/11/21 11:23:31;;;;;;;14.83;5.77;;;;;;;2.92;100.00;99238.59;124821;1099;104240;-75
2022/11/21 11:26:25;;;;;;;9.53;4.23;;;;;;;2.95;100.00;99236.15;125978;1102;102245;-76
2022/11/21 11:29:20;;;;;;;7.40;3.60;;;;;;;2.99;100.00;99243.22;125888;1099;101842;-75
2022/11/21 11:32:15;;;;;;;5.83;3.00;;;;;;;3.01;100.00;99233.84;125916;1102;102409;-74
2022/11/21 11:35:20;;;;;;;8.97;3.30;;;;;;;3.05;100.00;99239.23;125961;1099;102433;-76
2022/11/21 11:38:04;;;;;;;8.43;4.07;;;;;;;3.07;100.00;99236.70;125936;1099;101976;-74
2022/11/21 11:40:46;;;;;;;7.60;4.00;;;;;;;3.16;100.00;99242.27;125983;1102;102672;-74
2022/11/21 11:50:10;;;;;;;11.70;5.50;;;;;;;3.25;100.00;99231.44;126004;1099;102656;-74
2022/11/21 11:52:40;;;;;;;12.57;4.70;;;;;;;3.32;100.00;99232.59;126027;1098;102609;-75
2022/11/21 11:55:22;;;;;;;9.93;5.07;;;;;;;3.34;100.00;99228.38;126074;1099;101822;-74
2022/11/21 11:57:58;;;;;;;12.23;5.53;;;;;;;3.33;100.00;99216.22;125981;1101;102700;-73
2022/11/21 12:00:40;;;;;;;11.33;5.60;;;;;;;3.39;100.00;99221.67;125913;1102;103780;-74
2022/11/21 12:03:30;;;;;;;11.67;5.37;;;;;;;3.50;100.00;99220.42;125782;1102;102507;-73
2022/11/21 12:06:14;;;;;;;13.30;6.20;;;;;;;3.55;100.00;99221.53;126453;1098;102691;-74
2022/11/21 12:08:56;;;;;;;18.47;6.40;;;;;;;3.55;100.00;99224.13;125557;1102;102565;-73
2022/11/21 12:17:52;;;;;;;14.40;5.70;;;;;;;3.40;100.00;99208.78;124305;1099;104067;-75
2022/11/21 12:20:33;;;;;;;14.57;6.23;;;;;;;3.41;100.00;99207.06;124259;1099;104332;-73
2022/11/21 12:23:12;;;;;;;11.70;5.20;;;;;;;3.44;100.00;99212.38;124251;1100;104245;-73
2022/11/21 12:25:54;;;;;;;14.17;5.90;;;;;;;3.40;100.00;99215.69;124374;1099;104274;-74
2022/11/21 12:28:39;;;;;;;13.13;5.07;;;;;;;3.36;100.00;99212.05;124450;1099;104230;-74
2022/11/21 12:31:33;;;;;;;7.17;4.03;;;;;;;3.29;100.00;99217.80;124094;1099;104219;-74
2022/11/21 12:34:22;;;;;;;8.13;3.97;;;;;;;3.24;100.00;99212.42;124251;1099;104123;-75
2022/11/21 12:37:13;;;;;;;8.17;4.00;;;;;;;3.20;100.00;99218.27;124352;1099;104227;-75
2022/11/21 12:40:24;;;;;;;4.53;2.87;;;;;;;3.17;100.00;99222.44;124080;1102;104351;-75
2022/11/21 12:43:33;;;;;;;6.57;3.07;;;;;;;3.12;100.00;99227.42;125281;1102;104155;-74
2022/11/21 12:46:21;;;;;;;5.67;3.27;;;;;;;3.10;100.00;99229.06;124250;1102;104219;-77
2022/11/21 12:55:23;;;;;;;6.70;3.27;;;;;;;3.01;100.00;99241.61;124190;1101;104364;-76
2022/11/21 12:58:17;;;;;;;6.42;3.50;;;;;;;2.98;100.00;99231.98;124088;1102;104537;-75
2022/11/21 13:01:18;;;;;;;10.63;3.70;;;;;;;2.97;100.00;99235.38;124147;1102;104226;-77
2022/11/21 13:03:59;;;;;;;9.57;4.60;;;;;;;2.96;100.00;99235.31;124775;1101;104133;-75
2022/11/21 13:06:36;;;;;;;9.17;4.23;;;;;;;2.99;100.00;99238.95;124193;1102;104210;-75
2022/11/21 13:09:16;;;;;;;7.33;3.63;;;;;;;3.00;100.00;99245.01;124267;1101;104226;-77
2022/11/21 13:12:00;;;;;;;6.87;3.50;;;;;;;2.99;100.00;99253.59;124335;1102;104169;-74
2022/11/21 13:15:02;;;;;;;9.13;3.40;;;;;;;2.97;100.00;99247.46;124115;1102;104286;-74
2022/11/21 13:17:57;;;;;;;6.50;3.57;;;;;;;2.93;100.00;99250.71;124382;1102;104172;-76
2022/11/21 13:20:47;;;;;;;6.50;3.57;;;;;;;2.90;100.00;99254.08;124402;1102;103159;-75
2022/11/21 13:23:47;;;;;;;7.20;3.80;;;;;;;2.90;100.00;99240.20;124276;1102;104274;-78
2022/11/21 13:26:52;;;;;;;6.97;3.57;;;;;;;2.88;100.00;99235.86;124264;1102;119331;-75
2022/11/21 13:29:29;;;;;;;4.03;2.30;;;;;;;2.82;100.00;99232.98;124337;1102;104236;-76
2022/11/21 13:32:23;;;;;;;5.22;2.70;;;;;;;2.76;100.00;99224.94;124412;1102;102696;-76
2022/11/21 13:34:57;;;;;;;6.40;3.10;;;;;;;2.70;100.00;99238.48;124538;1102;103336;-76
2022/11/21 13:38:00;;;;;;;6.37;3.20;;;;;;;2.68;100.00;99245.30;124702;1102;101867;-75
2022/11/21 13:44:16;;;;;;;8.80;3.50;;;;;;;2.67;100.00;99233.16;124313;1102;104191;-76
2022/11/21 13:47:29;;;;;;;9.83;3.10;;;;;;;2.66;100.00;99226.19;124593;1102;102352;-76
2022/11/21 13:50:13;;;;;;;8.87;3.43;;;;;;;2.62;100.00;99218.23;124621;1102;104284;-75
2022/11/21 13:53:00;;;;;;;5.37;2.93;;;;;;;2.62;100.00;99223.41;125033;1102;102163;-77
2022/11/21 13:56:10;;;;;;;7.80;3.27;;;;;;;2.61;100.00;99219.91;124498;1102;104321;-77
2022/11/21 13:59:27;;;;;;;7.00;3.33;;;;;;;2.65;100.00;99210.58;126111;1099;102262;-75